createdAt,value
2023-02-24T00:01:59.697Z,12.50
2023-02-24T00:04:29.433Z,13.40
2023-02-24T00:06:56.125Z,13.30
2023-02-24T00:09:28.560Z,13.40
2023-02-24T00:12:00.560Z,12.50
2023-02-24T00:14:30.441Z,12.30
2023-02-24T00:17:00.807Z,14.10
2023-02-24T00:19:33.486Z,13.60
2023-02-24T00:22:02.061Z,14.10
2023-02-24T00:24:28.789Z,14.00
2023-02-24T00:26:59.079Z,13.70
2023-02-24T00:29:28.306Z,13.80
2023-02-24T00:32:00.146Z,12.60
2023-02-24T00:34:29.737Z,13.90
2023-02-24T00:36:57.710Z,15.10
2023-02-24T00:39:33.081Z,12.90
2023-02-24T00:42:04.445Z,13.20
2023-02-24T00:44:44.322Z,12.60
2023-02-24T00:47:11.990Z,15.10
2023-02-24T00:49:41.628Z,14.50
2023-02-24T00:52:17.766Z,13.80
2023-02-24T00:54:47.248Z,14.20
2023-02-24T00:57:18.060Z,15.00
2023-02-24T00:59:47.047Z,14.60
2023-02-24T01:02:14.945Z,14.20
2023-02-24T01:04:43.811Z,14.60
2023-02-24T01:07:11.417Z,15.00
2023-02-24T01:09:40.871Z,13.80
2023-02-24T01:12:28.928Z,14.60
2023-02-24T01:14:58.293Z,14.40
2023-02-24T01:17:25.039Z,13.90
2023-02-24T01:19:51.850Z,14.60
2023-02-24T01:22:20.306Z,14.90
2023-02-24T01:24:47.906Z,14.60
2023-02-24T01:27:19.300Z,14.60
2023-02-24T01:29:47.135Z,14.90
2023-02-24T01:32:20.119Z,14.70
2023-02-24T01:34:50.818Z,15.30
2023-02-24T01:37:18.653Z,13.50
2023-02-24T01:39:45.986Z,14.30
2023-02-24T01:42:18.910Z,15.30
2023-02-24T01:44:47.069Z,15.50
2023-02-24T01:47:17.834Z,16.40
2023-02-24T01:49:47.147Z,17.20
2023-02-24T01:52:24.257Z,16.20
2023-02-24T01:55:08.711Z,17.00
2023-02-24T01:57:38.379Z,16.50
2023-02-24T02:00:18.830Z,15.20
2023-02-24T02:02:52.034Z,16.10
2023-02-24T02:05:18.880Z,16.40
2023-02-24T02:07:45.853Z,16.10
2023-02-24T02:10:13.464Z,17.10
2023-02-24T02:12:45.488Z,17.50
2023-02-24T02:15:19.784Z,16.60
2023-02-24T02:18:27.458Z,16.70
2023-02-24T02:21:06.520Z,16.40
2023-02-24T02:23:50.590Z,16.70
2023-02-24T02:26:20.709Z,16.90
2023-02-24T02:28:54.583Z,18.10
2023-02-24T02:31:46.118Z,16.90
2023-02-24T02:34:19.625Z,16.20
2023-02-24T02:37:11.751Z,17.80
2023-02-24T02:40:07.614Z,15.80
2023-02-24T02:42:50.849Z,17.30
2023-02-24T02:45:24.207Z,18.00
2023-02-24T02:48:23.964Z,18.60
2023-02-24T02:51:03.646Z,20.20
2023-02-24T02:53:39.335Z,19.30
2023-02-24T02:56:31.527Z,20.00
2023-02-24T02:59:00.421Z,19.60
2023-02-24T03:01:33.573Z,19.00
2023-02-24T03:04:05.084Z,20.40
2023-02-24T03:06:34.630Z,20.80
2023-02-24T03:09:11.979Z,20.60
2023-02-24T03:11:41.009Z,21.40
2023-02-24T03:14:12.310Z,22.00
2023-02-24T03:16:43.220Z,22.90
2023-02-24T03:19:13.182Z,20.80
2023-02-24T03:21:57.685Z,20.20
2023-02-24T03:24:24.484Z,21.80
2023-02-24T03:27:11.295Z,23.20
2023-02-24T03:29:48.234Z,23.00
2023-02-24T03:32:32.737Z,24.00
2023-02-24T03:35:13.162Z,22.50
2023-02-24T03:37:41.197Z,23.00
2023-02-24T03:40:13.935Z,24.70
2023-02-24T03:42:45.725Z,23.70
2023-02-24T03:45:13.194Z,23.60
2023-02-24T03:47:41.053Z,24.20
2023-02-24T03:50:15.704Z,24.00
2023-02-24T03:52:51.607Z,22.40
2023-02-24T03:55:45.725Z,24.40
2023-02-24T03:58:27.717Z,22.30
2023-02-24T04:00:55.311Z,23.60
2023-02-24T04:03:27.901Z,23.50
2023-02-24T04:06:08.390Z,23.00
2023-02-24T04:09:00.860Z,23.90
2023-02-24T04:11:43.609Z,25.30
2023-02-24T04:14:34.276Z,25.60
2023-02-24T04:17:12.894Z,26.20
2023-02-24T04:19:43.921Z,25.80
2023-02-24T04:22:15.032Z,25.80
2023-02-24T04:24:44.215Z,24.40
2023-02-24T04:27:12.761Z,27.40
2023-02-24T04:29:51.473Z,25.50
2023-02-24T04:32:24.680Z,26.00
2023-02-24T04:34:51.969Z,26.80
2023-02-24T04:37:22.499Z,25.00
2023-02-24T04:39:50.320Z,27.10
2023-02-24T04:42:23.199Z,25.30
2023-02-24T04:44:50.068Z,25.60
2023-02-24T04:47:16.721Z,25.10
2023-02-24T04:49:43.962Z,27.70
2023-02-24T04:52:11.514Z,27.20
2023-02-24T04:54:38.288Z,23.80
2023-02-24T04:57:06.733Z,26.30
2023-02-24T04:59:33.380Z,25.90
2023-02-24T05:02:01.240Z,26.50
2023-02-24T05:04:29.525Z,29.70
2023-02-24T05:06:57.055Z,26.80
2023-02-24T05:09:23.966Z,27.00
2023-02-24T05:11:51.845Z,25.20
2023-02-24T05:14:24.498Z,25.40
2023-02-24T05:16:51.428Z,26.90
2023-02-24T05:19:38.559Z,27.10
2023-02-24T05:22:06.519Z,26.20
2023-02-24T05:24:34.130Z,25.70
2023-02-24T05:27:03.180Z,25.70
2023-02-24T05:29:34.310Z,26.60
2023-02-24T05:32:03.469Z,26.80
2023-02-24T05:34:31.949Z,27.80
2023-02-24T05:37:01.064Z,25.30
2023-02-24T05:39:27.863Z,27.30
2023-02-24T05:41:56.653Z,26.60
2023-02-24T05:44:25.459Z,26.60
2023-02-24T05:46:58.043Z,26.80
2023-02-24T05:49:32.458Z,27.60
2023-02-24T05:52:06.777Z,24.00
2023-02-24T05:54:40.049Z,26.10
2023-02-24T05:57:13.255Z,25.10
2023-02-24T05:59:41.122Z,24.70
2023-02-24T06:02:13.229Z,25.40
2023-02-24T06:04:50.474Z,25.70
2023-02-24T06:07:18.553Z,23.70
2023-02-24T06:09:49.327Z,24.70
2023-02-24T06:12:17.631Z,24.20
2023-02-24T06:14:44.608Z,24.10
2023-02-24T06:17:11.457Z,25.10
2023-02-24T06:19:39.233Z,23.30
2023-02-24T06:22:10.372Z,22.60
2023-02-24T06:24:37.130Z,29.40
2023-02-24T06:27:10.023Z,25.30
2023-02-24T06:29:37.473Z,24.10
2023-02-24T06:32:10.468Z,23.20
2023-02-24T06:34:38.606Z,23.40
2023-02-24T06:37:09.126Z,22.50
2023-02-24T06:39:36.913Z,22.80
2023-02-24T06:42:04.901Z,23.10
2023-02-24T06:44:33.355Z,23.50
2023-02-24T06:47:00.572Z,22.30
2023-02-24T06:49:28.026Z,22.90
2023-02-24T06:51:57.040Z,23.00
2023-02-24T06:54:27.789Z,23.00
2023-02-24T06:56:55.083Z,23.20
2023-02-24T06:59:22.018Z,23.90
2023-02-24T07:01:48.953Z,23.00
2023-02-24T07:04:16.564Z,22.90
2023-02-24T07:06:48.744Z,21.90
2023-02-24T07:09:18.227Z,22.80
2023-02-24T07:11:51.334Z,23.70
2023-02-24T07:14:23.861Z,22.30
2023-02-24T07:16:54.068Z,23.50
2023-02-24T07:19:28.630Z,22.20
2023-02-24T07:21:59.516Z,22.60
2023-02-24T07:24:39.441Z,22.40
2023-02-24T07:27:21.384Z,23.90
2023-02-24T07:29:53.008Z,21.50
2023-02-24T07:32:25.017Z,22.60
2023-02-24T07:34:52.571Z,23.80
2023-02-24T07:37:20.012Z,22.30
2023-02-24T07:39:49.048Z,21.10
2023-02-24T07:42:15.744Z,22.80
2023-02-24T07:44:45.833Z,22.10
2023-02-24T07:47:15.137Z,22.40
2023-02-24T07:49:41.884Z,22.00
2023-02-24T07:52:10.894Z,19.20
2023-02-24T07:54:38.657Z,22.40
2023-02-24T07:57:05.867Z,20.40
2023-02-24T07:59:34.576Z,20.80
2023-02-24T08:02:04.015Z,20.40
2023-02-24T08:04:32.463Z,19.50
2023-02-24T08:07:02.176Z,20.10
2023-02-24T08:10:06.742Z,19.40
2023-02-24T08:12:34.610Z,20.80
2023-02-24T08:15:08.366Z,18.60
2023-02-24T08:17:35.117Z,19.60
2023-02-24T08:20:14.112Z,19.80
2023-02-24T08:22:46.327Z,18.30
2023-02-24T08:25:17.722Z,18.50
2023-02-24T08:28:06.373Z,18.90
2023-02-24T08:30:39.774Z,18.60
2023-02-24T08:33:09.353Z,18.20
2023-02-24T08:35:38.408Z,18.20
2023-02-24T08:38:27.114Z,18.40
2023-02-24T08:40:55.260Z,16.90
2023-02-24T08:43:35.244Z,17.50
2023-02-24T08:46:32.157Z,16.60
2023-02-24T08:49:02.178Z,18.40
2023-02-24T08:51:34.322Z,16.60
2023-02-24T08:54:10.543Z,15.30
2023-02-24T08:56:42.673Z,16.80
2023-02-24T08:59:28.543Z,16.90
2023-02-24T09:02:17.000Z,16.80
2023-02-24T09:04:59.204Z,15.40
2023-02-24T09:07:40.074Z,15.60
2023-02-24T09:10:18.516Z,16.80
2023-02-24T09:12:46.150Z,17.20
2023-02-24T09:15:16.183Z,17.30
2023-02-24T09:17:44.582Z,17.20
2023-02-24T09:20:35.695Z,16.20
2023-02-24T09:23:03.796Z,14.80
2023-02-24T09:25:40.969Z,16.00
2023-02-24T09:28:18.194Z,16.20
2023-02-24T09:30:54.861Z,18.40
2023-02-24T09:33:28.716Z,19.00
2023-02-24T09:36:08.946Z,18.40
2023-02-24T09:39:01.836Z,15.70
2023-02-24T09:42:17.312Z,14.10
2023-02-24T09:44:48.607Z,15.30
2023-02-24T09:47:30.424Z,15.30
2023-02-24T09:50:07.910Z,14.40
2023-02-24T09:52:40.530Z,14.90
2023-02-24T09:55:24.509Z,13.30
2023-02-24T09:58:12.869Z,12.80
2023-02-24T10:00:44.573Z,11.00
2023-02-24T10:03:40.824Z,10.90
2023-02-24T10:06:26.353Z,10.50
2023-02-24T10:09:13.774Z,10.20
2023-02-24T10:12:07.265Z,10.30
2023-02-24T10:14:44.391Z,11.50
2023-02-24T10:17:23.950Z,10.60
2023-02-24T10:20:13.514Z,11.00
2023-02-24T10:22:53.223Z,11.60
2023-02-24T10:25:41.167Z,11.30
2023-02-24T10:28:21.694Z,9.30
2023-02-24T10:31:09.642Z,8.90
2023-02-24T10:33:44.835Z,6.20
2023-02-24T10:36:17.238Z,4.40
2023-02-24T10:38:45.069Z,3.60
2023-02-24T10:41:16.556Z,3.70
2023-02-24T10:43:55.470Z,3.60
2023-02-24T10:46:42.165Z,3.60
2023-02-24T10:49:15.686Z,3.40
2023-02-24T10:51:50.695Z,2.60
2023-02-24T10:54:44.064Z,4.10
2023-02-24T10:57:36.023Z,3.80
2023-02-24T11:00:18.258Z,3.20
2023-02-24T11:03:06.590Z,3.10
2023-02-24T11:05:45.400Z,4.80
2023-02-24T11:08:36.164Z,5.10
2023-02-24T11:11:26.105Z,4.80
2023-02-24T11:14:12.599Z,5.30
2023-02-24T11:17:10.309Z,5.70
2023-02-24T11:19:45.784Z,4.00
2023-02-24T11:22:19.880Z,5.10
2023-02-24T11:24:49.673Z,4.60
2023-02-24T11:27:23.075Z,3.80
2023-02-24T11:29:52.869Z,5.30
2023-02-24T11:32:34.799Z,4.40
2023-02-24T11:35:22.048Z,7.00
2023-02-24T11:38:05.443Z,7.90
2023-02-24T11:40:39.510Z,6.90
2023-02-24T11:43:13.869Z,7.00
2023-02-24T11:45:44.591Z,7.30
2023-02-24T11:48:38.394Z,7.70
2023-02-24T11:51:17.842Z,5.60
2023-02-24T11:53:53.204Z,7.00
2023-02-24T11:56:38.137Z,7.10
2023-02-24T11:59:19.794Z,6.80
2023-02-24T12:01:53.026Z,6.70
2023-02-24T12:04:25.756Z,5.10
2023-02-24T12:07:14.030Z,5.20
2023-02-24T12:10:16.013Z,5.70
2023-02-24T12:13:03.865Z,5.30
2023-02-24T12:15:52.629Z,3.80
2023-02-24T12:18:27.234Z,4.30
2023-02-24T12:20:59.955Z,4.30
2023-02-24T12:23:39.522Z,4.50
2023-02-24T12:26:09.372Z,4.50
2023-02-24T12:28:56.344Z,4.80
2023-02-24T12:31:38.508Z,4.60
2023-02-24T12:34:08.348Z,5.70
2023-02-24T12:37:07.017Z,5.90
2023-02-24T12:39:53.523Z,5.50
2023-02-24T12:42:31.024Z,5.80
2023-02-24T12:45:16.457Z,4.70
2023-02-24T12:47:58.526Z,3.80
2023-02-24T12:50:47.088Z,4.80
2023-02-24T12:53:26.085Z,4.50
2023-02-24T12:56:05.774Z,5.70
2023-02-24T12:58:36.632Z,4.00
2023-02-24T13:01:34.491Z,4.90
2023-02-24T13:04:23.131Z,4.30
2023-02-24T13:07:30.811Z,4.30
2023-02-24T13:10:12.089Z,4.90
2023-02-24T13:12:51.631Z,4.60
2023-02-24T13:15:24.971Z,4.30
2023-02-24T13:17:55.741Z,5.00
2023-02-24T13:20:33.605Z,5.70
2023-02-24T13:23:03.059Z,5.20
2023-02-24T13:25:39.226Z,7.60
2023-02-24T13:28:26.975Z,5.70
2023-02-24T13:31:12.059Z,6.90
2023-02-24T13:33:44.181Z,5.70
2023-02-24T13:36:15.394Z,7.10
2023-02-24T13:38:47.389Z,6.00
2023-02-24T13:41:26.525Z,5.60
2023-02-24T13:44:01.414Z,6.30
2023-02-24T13:46:49.009Z,6.30
2023-02-24T13:49:22.446Z,6.40
2023-02-24T13:51:59.222Z,6.10
2023-02-24T13:54:25.852Z,5.70
2023-02-24T13:56:55.957Z,6.20
2023-02-24T13:59:52.616Z,6.80
2023-02-24T14:02:22.426Z,6.90
2023-02-24T14:04:55.099Z,5.50
2023-02-24T14:07:24.707Z,6.40
2023-02-24T14:09:58.810Z,6.40
2023-02-24T14:12:33.666Z,7.00
2023-02-24T14:15:02.936Z,7.10
2023-02-24T14:17:33.108Z,6.80
2023-02-24T14:20:09.029Z,7.40
2023-02-24T14:22:52.548Z,7.20
2023-02-24T14:25:21.606Z,7.90
2023-02-24T14:27:52.101Z,7.20
2023-02-24T14:30:35.087Z,7.10
2023-02-24T14:33:04.214Z,6.10
2023-02-24T14:35:46.616Z,5.60
2023-02-24T14:38:39.670Z,5.50
2023-02-24T14:41:19.318Z,5.60
2023-02-24T14:43:46.299Z,5.30
2023-02-24T14:46:13.122Z,5.20
2023-02-24T14:48:39.981Z,6.10
2023-02-24T14:51:11.903Z,7.30
2023-02-24T14:53:49.014Z,7.40
2023-02-24T14:56:17.851Z,6.60
2023-02-24T14:58:53.045Z,6.50
2023-02-24T15:01:49.317Z,5.70
2023-02-24T15:04:32.238Z,5.40
2023-02-24T15:07:02.823Z,5.70
2023-02-24T15:09:36.599Z,5.70
2023-02-24T15:12:20.253Z,4.80
2023-02-24T15:15:01.318Z,5.40
2023-02-24T15:17:28.895Z,6.20
2023-02-24T15:19:55.649Z,5.90
2023-02-24T15:22:28.809Z,6.10
2023-02-24T15:25:12.519Z,5.60
2023-02-24T15:27:59.940Z,6.30
2023-02-24T15:30:34.094Z,7.10
2023-02-24T15:33:07.703Z,6.30
2023-02-24T15:35:38.460Z,7.70
2023-02-24T15:38:05.454Z,8.10
2023-02-24T15:40:33.000Z,7.10
2023-02-24T15:43:16.050Z,8.00
2023-02-24T15:46:06.723Z,6.90
2023-02-24T15:49:30.822Z,6.10
2023-02-24T15:53:20.834Z,6.50
2023-02-24T15:56:19.935Z,6.00
2023-02-24T15:59:26.499Z,4.80
2023-02-24T16:02:13.661Z,5.40
2023-02-24T16:11:06.542Z,4.30
2023-02-24T16:17:39.615Z,3.40
2023-02-24T16:25:02.554Z,4.80
2023-02-24T16:28:05.608Z,4.00
2023-02-24T16:30:48.974Z,4.60
2023-02-24T16:38:12.549Z,5.10
2023-02-24T16:41:41.799Z,5.90
2023-02-24T16:50:15.061Z,4.70
2023-02-24T16:57:11.748Z,4.50
2023-02-24T17:03:06.874Z,5.80
2023-02-24T17:06:13.707Z,5.20
2023-02-24T17:08:56.000Z,5.50
2023-02-24T17:12:02.033Z,6.00
2023-02-24T17:14:53.981Z,4.60
2023-02-24T17:17:51.112Z,5.10
2023-02-24T17:20:44.464Z,4.10
2023-02-24T17:23:45.694Z,4.10
2023-02-24T17:26:39.969Z,4.40
2023-02-24T17:29:20.599Z,4.80
2023-02-24T17:32:27.754Z,4.20
2023-02-24T17:39:06.595Z,4.00
2023-02-24T17:43:05.743Z,4.00
2023-02-24T17:45:57.156Z,4.40
2023-02-24T17:48:24.109Z,4.60
2023-02-24T17:50:51.440Z,4.00
2023-02-24T17:53:18.339Z,3.60
2023-02-24T17:56:01.381Z,3.40
2023-02-24T17:58:29.801Z,3.50
2023-02-24T18:00:56.967Z,3.50
2023-02-24T18:03:24.306Z,4.10
2023-02-24T18:06:02.991Z,5.70
2023-02-24T18:08:32.360Z,9.30
2023-02-24T18:10:59.405Z,8.80
2023-02-24T18:13:28.592Z,7.90
2023-02-24T18:15:56.210Z,8.00
2023-02-24T18:18:25.069Z,7.00
2023-02-24T18:20:52.121Z,7.40
2023-02-24T18:23:19.415Z,7.90
2023-02-24T18:25:46.266Z,7.00
2023-02-24T18:28:13.106Z,5.90
2023-02-24T18:30:40.005Z,6.30
2023-02-24T18:33:06.979Z,5.70
2023-02-24T18:35:34.261Z,6.90
2023-02-24T18:38:02.238Z,7.00
2023-02-24T18:40:29.391Z,6.20
2023-02-24T18:42:56.463Z,7.10
2023-02-24T18:45:23.948Z,7.40
2023-02-24T18:47:51.554Z,7.60
2023-02-24T18:50:20.193Z,7.00
2023-02-24T18:52:47.902Z,8.80
2023-02-24T18:55:14.950Z,11.30
2023-02-24T18:57:42.614Z,10.40
2023-02-24T19:00:12.623Z,10.10
2023-02-24T19:02:40.859Z,12.10
2023-02-24T19:05:08.286Z,12.40
2023-02-24T19:07:35.169Z,11.40
2023-02-24T19:10:02.191Z,10.20
2023-02-24T19:12:29.120Z,11.30
2023-02-24T19:14:55.978Z,12.40
2023-02-24T19:17:22.826Z,11.80
2023-02-24T19:19:50.187Z,11.70
2023-02-24T19:22:16.983Z,12.10
2023-02-24T19:24:44.514Z,10.40
2023-02-24T19:27:11.261Z,12.80
2023-02-24T19:29:37.971Z,11.90
2023-02-24T19:32:04.995Z,15.00
2023-02-24T19:34:31.874Z,18.60
2023-02-24T19:36:58.624Z,21.90
2023-02-24T19:39:25.503Z,21.60
2023-02-24T19:41:52.920Z,21.10
2023-02-24T19:44:19.859Z,19.10
2023-02-24T19:46:47.017Z,19.60
2023-02-24T19:49:13.668Z,20.00
2023-02-24T19:51:40.404Z,17.10
2023-02-24T19:54:07.217Z,18.60
2023-02-24T19:56:36.206Z,19.20
2023-02-24T19:59:10.818Z,17.10
2023-02-24T20:01:37.838Z,19.30
2023-02-24T20:04:05.245Z,16.70
2023-02-24T20:06:40.662Z,18.30
2023-02-24T20:09:10.515Z,17.70
2023-02-24T20:11:38.606Z,16.00
2023-02-24T20:14:07.936Z,17.30
2023-02-24T20:16:36.910Z,16.80
2023-02-24T20:19:05.467Z,18.40
2023-02-24T20:21:33.408Z,16.40
2023-02-24T20:24:05.335Z,19.00
2023-02-24T20:26:32.943Z,19.00
2023-02-24T20:29:00.434Z,16.90
2023-02-24T20:31:27.843Z,17.30
2023-02-24T20:33:55.853Z,16.90
2023-02-24T20:36:28.283Z,16.90
2023-02-24T20:38:57.174Z,17.90
2023-02-24T20:41:26.073Z,17.80
2023-02-24T20:43:54.674Z,18.20
2023-02-24T20:46:30.255Z,17.30
2023-02-24T20:49:03.498Z,19.60
2023-02-24T20:51:32.090Z,18.70
2023-02-24T20:54:08.490Z,18.20
2023-02-24T20:56:37.419Z,16.50
2023-02-24T20:59:12.405Z,17.10
2023-02-24T21:01:41.388Z,13.30
2023-02-24T21:04:08.275Z,14.20
2023-02-24T21:06:36.576Z,14.30
2023-02-24T21:09:03.868Z,13.50
2023-02-24T21:11:32.191Z,12.50
2023-02-24T21:13:59.522Z,14.50
2023-02-24T21:16:27.370Z,12.70
2023-02-24T21:18:55.711Z,13.30
2023-02-24T21:21:22.667Z,12.60
2023-02-24T21:23:49.980Z,13.10
2023-02-24T21:26:17.238Z,13.50
2023-02-24T21:28:44.380Z,14.30
2023-02-24T21:31:14.330Z,15.20
2023-02-24T21:33:53.762Z,15.00
2023-02-24T21:36:39.929Z,14.00
2023-02-24T21:39:07.092Z,16.30
2023-02-24T21:41:35.880Z,13.50
2023-02-24T21:44:03.298Z,13.60
2023-02-24T21:46:30.601Z,13.40
2023-02-24T21:48:58.490Z,14.00
2023-02-24T21:51:27.234Z,13.20
2023-02-24T21:53:55.303Z,13.10
2023-02-24T21:56:25.772Z,12.80
2023-02-24T21:58:54.120Z,12.90
2023-02-24T22:01:25.162Z,12.40
2023-02-24T22:03:57.299Z,11.70
2023-02-24T22:06:31.343Z,12.40
2023-02-24T22:08:59.336Z,10.80
2023-02-24T22:11:26.793Z,10.40
2023-02-24T22:13:53.657Z,12.60
2023-02-24T22:16:22.890Z,12.90
2023-02-24T22:18:51.320Z,11.80
2023-02-24T22:21:21.081Z,11.60
2023-02-24T22:23:51.823Z,12.80
2023-02-24T22:26:22.402Z,10.50
2023-02-24T22:28:49.332Z,10.70
2023-02-24T22:31:18.682Z,10.80
2023-02-24T22:33:46.266Z,10.30
2023-02-24T22:36:16.621Z,10.50
2023-02-24T22:38:47.646Z,9.30
2023-02-24T22:41:17.328Z,10.50
2023-02-24T22:43:44.574Z,9.10
2023-02-24T22:46:14.188Z,9.70
2023-02-24T22:48:42.914Z,8.90
2023-02-24T22:51:11.728Z,9.00
2023-02-24T22:53:41.636Z,8.50
2023-02-24T22:56:12.738Z,9.50
2023-02-24T22:58:39.579Z,10.90
2023-02-24T23:01:11.430Z,12.10
2023-02-24T23:03:39.570Z,12.70
2023-02-24T23:06:15.896Z,10.10
2023-02-24T23:08:45.860Z,10.00
2023-02-24T23:11:14.438Z,9.70
2023-02-24T23:13:44.184Z,8.90
2023-02-24T23:16:14.415Z,8.20
2023-02-24T23:18:47.974Z,7.70
2023-02-24T23:21:15.529Z,7.80
2023-02-24T23:23:42.604Z,7.70
2023-02-24T23:26:10.854Z,7.50
2023-02-24T23:28:38.692Z,7.40
2023-02-24T23:31:06.663Z,7.60
2023-02-24T23:33:34.055Z,9.00
2023-02-24T23:36:06.226Z,9.20
2023-02-24T23:38:33.735Z,8.70
2023-02-24T23:41:00.761Z,9.30
2023-02-24T23:43:27.521Z,10.20
2023-02-24T23:45:55.089Z,10.20
2023-02-24T23:48:22.029Z,9.20
2023-02-24T23:50:50.644Z,9.70
2023-02-24T23:53:17.630Z,9.60
2023-02-24T23:55:44.350Z,9.60
2023-02-24T23:58:11.294Z,8.50
